Time;durP1;ratioP1;P1;durP2;ratioP2;P2;SDS_P1;SDS_P2;PMS_P1;PMS_P2;Temp;Humidity;BMP_temperature;BMP_pressure;BME280_temperature;BME280_humidity;BME280_pressure;Samples;Min_cycle;Max_cycle;Signal;HPM_P1;HPM_P2
2022/04/13 00:00:30;;;;;;;15.88;8.05;;;11.90;99.90;;;;;;4380214;32;20089;-64
2022/04/13 00:02:57;;;;;;;18.10;8.48;;;;;;;;;;4392212;32;20081;-65
2022/04/13 00:05:23;;;;;;;14.13;6.87;;;11.90;99.90;;;;;;4392410;32;20153;-63
2022/04/13 00:07:50;;;;;;;18.48;7.32;;;11.90;99.90;;;;;;4379505;32;20073;-64
2022/04/13 00:10:17;;;;;;;14.30;7.28;;;;;;;;;;4379627;32;20081;-65
2022/04/13 00:12:43;;;;;;;12.30;5.72;;;11.80;99.90;;;;;;4391795;32;20515;-65
2022/04/13 00:15:09;;;;;;;10.20;5.45;;;11.90;99.90;;;;;;4392061;32;20058;-65
2022/04/13 00:17:37;;;;;;;12.75;5.62;;;;;;;;;;4392026;32;20066;-65
2022/04/13 00:20:05;;;;;;;10.32;5.12;;;11.90;99.90;;;;;;4393384;32;20088;-64
2022/04/13 00:22:32;;;;;;;10.25;4.93;;;11.70;99.90;;;;;;4386234;32;20146;-64
2022/04/13 00:24:58;;;;;;;12.57;4.78;;;;;;;;;;4402623;32;20074;-64
2022/04/13 00:27:25;;;;;;;12.45;4.80;;;;;;;;;;4399352;32;20101;-65
2022/04/13 00:29:52;;;;;;;8.07;4.68;;;;;;;;;;4393270;32;20171;-65
2022/04/13 00:32:18;;;;;;;10.70;5.15;;;;;;;;;;4391812;32;20105;-65
2022/04/13 00:34:45;;;;;;;10.02;4.80;;;;;;;;;;4391724;32;20064;-65
2022/04/13 00:37:12;;;;;;;9.68;4.57;;;;;;;;;;4379374;32;20150;-64
2022/04/13 00:39:38;;;;;;;10.63;5.10;;;11.60;99.90;;;;;;4393027;32;20073;-64
2022/04/13 00:42:07;;;;;;;9.27;4.78;;;11.90;99.90;;;;;;4391583;32;20082;-64
2022/04/13 00:44:35;;;;;;;9.35;4.40;;;11.90;99.90;;;;;;4392816;32;20505;-65
2022/04/13 00:47:07;;;;;;;10.75;5.12;;;11.90;99.90;;;;;;4391571;32;20070;-65
2022/04/13 00:49:37;;;;;;;11.10;5.07;;;11.90;99.90;;;;;;4379853;32;20085;-65
2022/04/13 00:52:06;;;;;;;13.18;6.32;;;11.70;99.90;;;;;;4393099;32;20604;-64
2022/04/13 00:54:34;;;;;;;11.50;6.28;;;11.50;99.90;;;;;;4378952;32;20101;-63
2022/04/13 00:57:09;;;;;;;12.10;6.87;;;11.50;99.90;;;;;;4391472;32;20156;-64
2022/04/13 00:59:40;;;;;;;12.95;7.82;;;11.50;99.90;;;;;;4391942;32;20521;-65
2022/04/13 01:02:08;;;;;;;12.07;7.32;;;11.40;99.90;;;;;;4391443;32;20080;-65
2022/04/13 01:04:35;;;;;;;13.80;7.85;;;11.20;99.90;;;;;;4391191;32;20074;-65
2022/04/13 01:07:07;;;;;;;16.33;9.90;;;11.40;99.90;;;;;;4391477;32;20130;-65
2022/04/13 01:09:35;;;;;;;26.05;12.68;;;;;;;;;;4391631;32;20084;-65
2022/04/13 01:12:01;;;;;;;19.42;11.27;;;;;;;;;;4390935;32;20103;-64
2022/04/13 01:14:28;;;;;;;14.43;10.00;;;;;;;;;;4390863;32;20090;-65
2022/04/13 01:16:55;;;;;;;12.10;7.97;;;;;;;;;;4391340;32;20104;-64
2022/04/13 01:19:21;;;;;;;12.98;6.80;;;;;;;;;;4391335;32;20073;-65
2022/04/13 01:21:58;;;;;;;9.68;6.22;;;10.50;99.90;;;;;;4366309;32;20081;-64
2022/04/13 01:24:26;;;;;;;8.93;5.70;;;10.40;99.90;;;;;;4391167;32;20451;-64
2022/04/13 01:26:52;;;;;;;9.35;5.03;;;10.30;99.90;;;;;;4391545;32;20080;-65
2022/04/13 01:29:18;;;;;;;9.32;4.97;;;;;;;;;;4391601;32;20583;-65
2022/04/13 01:31:45;;;;;;;10.02;5.05;;;;;;;;;;4392296;32;20150;-65
2022/04/13 01:34:13;;;;;;;8.45;4.90;;;;;;;;;;4391316;32;20152;-65
2022/04/13 01:36:40;;;;;;;10.32;4.82;;;;;;;;;;4391161;32;20086;-64
2022/04/13 01:39:07;;;;;;;6.70;4.35;;;;;;;;;;4390870;32;20097;-64
2022/04/13 01:41:34;;;;;;;10.23;4.35;;;;;;;;;;4390836;32;20081;-64
2022/04/13 01:44:00;;;;;;;7.87;4.00;;;9.80;99.90;;;;;;4390625;32;20097;-64
2022/04/13 01:46:26;;;;;;;11.68;4.72;;;10.00;99.90;;;;;;4390623;32;20071;-64
2022/04/13 01:48:53;;;;;;;8.75;4.07;;;10.00;99.90;;;;;;4378015;32;20153;-65
2022/04/13 01:51:20;;;;;;;7.00;4.78;;;9.90;99.90;;;;;;4391607;32;20115;-64
2022/04/13 01:53:50;;;;;;;9.25;5.07;;;9.90;99.90;;;;;;4392505;32;20074;-63
2022/04/13 01:56:18;;;;;;;10.05;4.95;;;;;;;;;;4402810;32;20270;-65
2022/04/13 01:58:45;;;;;;;10.77;5.12;;;;;;;;;;4390124;32;20472;-65
2022/04/13 02:01:11;;;;;;;9.50;5.15;;;;;;;;;;4390827;32;20093;-65
2022/04/13 02:03:38;;;;;;;6.47;3.80;;;;;;;;;;4378419;32;20086;-64
2022/04/13 02:06:05;;;;;;;7.05;4.03;;;;;;;;;;4378235;32;20070;-65
2022/04/13 02:08:31;;;;;;;8.27;4.55;;;;;;;;;;4390365;32;20112;-64
2022/04/13 02:10:58;;;;;;;9.55;4.75;;;;;;;;;;4377915;32;20160;-65
2022/04/13 02:13:25;;;;;;;11.07;4.45;;;;;;;;;;4392018;32;20100;-65
2022/04/13 02:15:51;;;;;;;7.22;4.20;;;;;;;;;;4365934;32;20085;-65
2022/04/13 02:18:18;;;;;;;8.88;5.22;;;;;;;;;;4390510;32;20089;-65
2022/04/13 02:20:44;;;;;;;8.25;5.18;;;;;;;;;;4390351;32;20088;-64
2022/04/13 02:23:11;;;;;;;7.62;4.87;;;;;;;;;;4391637;32;20068;-65
2022/04/13 02:25:38;;;;;;;13.77;5.50;;;;;;;;;;4391665;32;20069;-65
2022/04/13 02:28:05;;;;;;;11.07;5.50;;;;;;;;;;4390399;32;20085;-65
2022/04/13 02:30:32;;;;;;;8.60;4.93;;;;;;;;;;4389991;32;20088;-65
2022/04/13 02:32:59;;;;;;;9.48;5.50;;;9.70;99.90;;;;;;4377928;32;20081;-63
2022/04/13 02:35:26;;;;;;;9.60;5.03;;;9.60;99.90;;;;;;4389827;32;20065;-63
2022/04/13 02:37:52;;;;;;;11.25;5.40;;;;;;;;;;4390155;32;20097;-65
2022/04/13 02:40:19;;;;;;;14.87;5.30;;;;;;;;;;4391647;32;20081;-65
2022/04/13 02:42:46;;;;;;;16.85;5.43;;;;;;;;;;4377459;32;20151;-65
2022/04/13 02:45:13;;;;;;;9.27;5.07;;;;;;;;;;4391539;32;20567;-64
2022/04/13 02:47:39;;;;;;;10.80;5.53;;;;;;;;;;4391581;32;20084;-65
2022/04/13 02:50:07;;;;;;;14.82;5.03;;;;;;;;;;4401205;32;20150;-64
2022/04/13 02:52:34;;;;;;;14.63;5.22;;;;;;;;;;4404851;32;20154;-66
2022/04/13 02:55:00;;;;;;;11.65;5.32;;;;;;;;;;4390441;32;20074;-65
2022/04/13 02:57:27;;;;;;;16.45;6.40;;;;;;;;;;4390160;32;20076;-64
2022/04/13 02:59:53;;;;;;;10.82;5.28;;;;;;;;;;4390075;32;20085;-65
2022/04/13 03:02:20;;;;;;;12.40;6.03;;;;;;;;;;4389725;32;20096;-65
2022/04/13 03:04:47;;;;;;;15.90;5.55;;;;;;;;;;4389908;32;20087;-64
2022/04/13 03:07:16;;;;;;;12.68;5.43;;;;;;;;;;4365038;32;20081;-65
2022/04/13 03:09:42;;;;;;;13.38;4.82;;;;;;;;;;4377631;32;20594;-64
2022/04/13 03:12:10;;;;;;;16.15;5.85;;;;;;;;;;4391359;32;20058;-64
2022/04/13 03:14:37;;;;;;;12.55;5.68;;;;;;;;;;4393331;32;20097;-65
2022/04/13 03:17:04;;;;;;;14.50;4.60;;;;;;;;;;4393178;32;20102;-63
2022/04/13 03:19:31;;;;;;;14.77;5.15;;;;;;;;;;4394425;32;20093;-65
2022/04/13 03:21:57;;;;;;;12.95;4.72;;;;;;;;;;4395358;32;20078;-64
2022/04/13 03:24:27;;;;;;;10.68;4.57;;;;;;;;;;4394727;32;20077;-65
2022/04/13 03:26:54;;;;;;;12.18;4.65;;;;;;;;;;4395613;32;20161;-65
2022/04/13 03:29:20;;;;;;;9.75;3.80;;;;;;;;;;4399439;32;20077;-65
2022/04/13 03:31:47;;;;;;;9.65;3.75;;;;;;;;;;4396313;32;20172;-64
2022/04/13 03:34:14;;;;;;;12.15;4.55;;;;;;;;;;4393022;32;20169;-65
2022/04/13 03:36:50;;;;;;;13.03;4.80;;;;;;;;;;3832843;37;20246;-65
2022/04/13 03:39:17;;;;;;;11.60;4.70;;;;;;;;;;4404982;32;20597;-64
2022/04/13 03:41:44;;;;;;;10.85;4.68;;;;;;;;;;4404879;32;20165;-65
2022/04/13 03:44:11;;;;;;;9.05;4.40;;;;;;;;;;4391157;32;20085;-64
2022/04/13 03:46:37;;;;;;;12.80;4.50;;;;;;;;;;4391040;32;20081;-63
2022/04/13 03:49:04;;;;;;;10.55;4.50;;;10.80;99.90;;;;;;4390515;32;20094;-64
2022/04/13 03:51:30;;;;;;;11.77;4.20;;;;;;;;;;4390377;32;20085;-64
2022/04/13 03:53:57;;;;;;;9.30;3.95;;;;;;;;;;4390257;32;20534;-65
2022/04/13 03:56:24;;;;;;;10.77;4.30;;;;;;;;;;4378033;32;20148;-64
2022/04/13 03:58:50;;;;;;;7.15;4.10;;;;;;;;;;4390311;32;20545;-65
2022/04/13 04:01:17;;;;;;;11.70;3.75;;;;;;;;;;4402817;32;20519;-65
2022/04/13 04:03:44;;;;;;;6.70;3.60;;;;;;;;;;4375229;32;20101;-65
2022/04/13 04:06:10;;;;;;;7.07;4.18;;;;;;;;;;4375075;32;20086;-65
2022/04/13 04:08:37;;;;;;;6.70;3.55;;;11.10;99.90;;;;;;4375218;32;20459;-64
2022/04/13 04:11:03;;;;;;;7.12;3.53;;;;;;;;;;4389083;32;20078;-64
2022/04/13 04:13:30;;;;;;;7.72;3.12;;;;;;;;;;4374626;32;20553;-65
2022/04/13 04:15:57;;;;;;;7.80;3.70;;;;;;;;;;4387167;32;20472;-65
2022/04/13 04:18:24;;;;;;;6.37;3.75;;;;;;;;;;4387080;32;20436;-64
2022/04/13 04:20:50;;;;;;;7.25;3.75;;;11.40;99.90;;;;;;4375077;32;20073;-63
2022/04/13 04:23:17;;;;;;;9.35;4.05;;;;;;;;;;4362485;32;20085;-66
2022/04/13 04:25:43;;;;;;;7.93;4.12;;;;;;;;;;4374895;32;20077;-65
2022/04/13 04:28:10;;;;;;;8.82;3.75;;;;;;;;;;4387401;32;20090;-64
2022/04/13 04:30:41;;;;;;;9.57;4.00;;;;;;;;;;4374684;32;20186;-64
2022/04/13 04:33:08;;;;;;;8.40;3.17;;;;;;;;;;4374770;32;20093;-64
2022/04/13 04:35:35;;;;;;;8.60;3.62;;;;;;;;;;4359082;32;20067;-65
2022/04/13 04:38:02;;;;;;;10.93;4.10;;;;;;;;;;4373535;32;20090;-63
2022/04/13 04:40:29;;;;;;;8.80;3.25;;;12.10;99.90;;;;;;4372120;32;20074;-64
2022/04/13 04:42:58;;;;;;;6.53;3.00;;;;;;;;;;4359182;32;20549;-65
2022/04/13 04:45:25;;;;;;;14.43;3.97;;;;;;;;;;4359829;32;20232;-64
2022/04/13 04:47:53;;;;;;;3.95;3.08;;;;;;;;;;4351111;32;20143;-65
2022/04/13 04:50:21;;;;;;;8.07;3.15;;;;;;;;;;4363520;32;20086;-65
2022/04/13 04:52:49;;;;;;;5.57;2.60;;;;;;;;;;4363118;32;20149;-66
2022/04/13 04:55:29;;;;;;;5.70;3.17;;;;;;;;;;4349671;32;20086;-65
2022/04/13 04:57:56;;;;;;;6.28;3.35;;;;;;;;;;4363551;32;20501;-65
2022/04/13 05:00:23;;;;;;;4.78;3.08;;;;;;;;;;4349087;32;20458;-65
2022/04/13 05:02:53;;;;;;;7.07;3.10;;;;;;;;;;4349328;32;20151;-65
2022/04/13 05:05:21;;;;;;;7.18;3.08;;;;;;;;;;4362369;32;20134;-65
2022/04/13 05:07:48;;;;;;;6.03;2.85;;;;;;;;;;4362294;32;20070;-65
2022/04/13 05:10:15;;;;;;;12.37;3.22;;;;;;;;;;4363378;32;20079;-65
2022/04/13 05:12:48;;;;;;;5.75;3.10;;;;;;;;;;4349397;32;20163;-64
2022/04/13 05:15:15;;;;;;;10.27;3.65;;;;;;;;;;4349420;32;20101;-64
2022/04/13 05:17:42;;;;;;;4.80;2.42;;;;;;;;;;4362209;32;20107;-65
2022/04/13 05:20:10;;;;;;;5.75;2.87;;;;;;;;;;4362800;32;20530;-64
2022/04/13 05:22:37;;;;;;;6.10;2.83;;;;;;;;;;4361838;32;20069;-64
2022/04/13 05:25:05;;;;;;;3.78;2.62;;;;;;;;;;4349738;32;20157;-65
2022/04/13 05:27:32;;;;;;;4.10;2.60;;;;;;;;;;4349226;32;20167;-65
2022/04/13 05:29:59;;;;;;;4.43;2.67;;;;;;;;;;4362746;32;20074;-65
2022/04/13 05:32:25;;;;;;;7.95;3.42;;;17.90;99.90;;;;;;4348956;32;20200;-64
2022/04/13 05:35:01;;;;;;;8.48;2.95;;;;;;;;;;4364341;32;21220;-65
2022/04/13 05:37:28;;;;;;;3.43;2.30;;;;;;;;;;4364818;32;20185;-65
2022/04/13 05:39:55;;;;;;;4.47;2.53;;;;;;;;;;4363919;32;20177;-66
2022/04/13 05:42:23;;;;;;;6.28;2.50;;;18.80;99.90;;;;;;4376431;32;20082;-65
2022/04/13 05:44:50;;;;;;;5.22;2.80;;;;;;;;;;4363989;32;20097;-65
2022/04/13 05:47:17;;;;;;;4.82;3.00;;;;;;;;;;4363763;32;20089;-65
2022/04/13 05:49:44;;;;;;;4.40;2.62;;;17.50;99.90;;;;;;4376114;32;20078;-65
2022/04/13 05:52:11;;;;;;;4.93;2.72;;;;;;;;;;4376562;32;20074;-65
2022/04/13 05:54:38;;;;;;;4.78;2.47;;;;;;;;;;4363703;32;20089;-64
2022/04/13 05:57:04;;;;;;;9.57;3.20;;;;;;;;;;4363592;32;20094;-64
2022/04/13 05:59:31;;;;;;;5.78;2.65;;;;;;;;;;4366904;32;20086;-64
2022/04/13 06:01:57;;;;;;;4.43;2.30;;;20.00;99.90;;;;;;4372554;32;20090;-64
2022/04/13 06:04:24;;;;;;;3.58;2.37;;;19.70;99.90;;;;;;4364959;32;20466;-65
2022/04/13 06:06:51;;;;;;;5.97;2.47;;;;;;;;;;4377470;32;20097;-65
2022/04/13 06:09:18;;;;;;;7.28;2.50;;;;;;;;;;4377321;32;20542;-64
2022/04/13 06:11:44;;;;;;;3.92;2.25;;;;;;;;;;4363783;32;20105;-65
2022/04/13 06:14:11;;;;;;;3.97;2.47;;;;;;;;;;4363185;32;20074;-65
2022/04/13 06:16:37;;;;;;;5.45;2.83;;;;;;;;;;4363798;32;20165;-65
2022/04/13 06:19:04;;;;;;;7.10;3.03;;;;;;;;;;4363488;32;20105;-65
2022/04/13 06:21:30;;;;;;;4.87;2.67;;;17.20;99.90;;;;;;4362913;32;20452;-65
2022/04/13 06:23:57;;;;;;;8.40;3.40;;;;;;;;;;4363231;32;20105;-64
2022/04/13 06:26:24;;;;;;;4.57;2.47;;;;;;;;;;4351256;32;20158;-65
2022/04/13 06:28:51;;;;;;;5.03;2.85;;;16.10;99.90;;;;;;4377016;32;20503;-64
2022/04/13 06:31:18;;;;;;;3.80;2.47;;;16.10;99.90;;;;;;4363547;32;20074;-64
2022/04/13 06:33:45;;;;;;;2.70;1.83;;;;;;;;;;4380395;32;20090;-66
2022/04/13 06:36:12;;;;;;;3.80;2.08;;;;;;;;;;4365439;32;20089;-64
2022/04/13 06:38:40;;;;;;;6.00;2.55;;;;;;;;;;4363950;32;20074;-65
2022/04/13 06:41:16;;;;;;;5.85;2.90;;;;;;;;;;4363744;32;20118;-64
2022/04/13 06:43:43;;;;;;;4.40;3.05;;;;;;;;;;4363749;32;20070;-63
2022/04/13 06:46:09;;;;;;;3.85;2.30;;;15.50;99.90;;;;;;4362611;32;20507;-64
2022/04/13 06:48:36;;;;;;;5.97;2.78;;;15.90;99.90;;;;;;4376427;32;20078;-63
2022/04/13 06:51:03;;;;;;;5.28;2.72;;;;;;;;;;4362569;32;20689;-65
2022/04/13 06:53:30;;;;;;;4.93;2.40;;;;;;;;;;4362815;32;20156;-65
2022/04/13 06:55:56;;;;;;;2.05;1.62;;;;;;;;;;4376307;32;20094;-66
2022/04/13 06:58:23;;;;;;;6.55;2.70;;;;;;;;;;4350359;32;20082;-64
2022/04/13 07:00:50;;;;;;;6.45;3.15;;;;;;;;;;4362671;32;20082;-64
2022/04/13 07:03:16;;;;;;;9.35;3.35;;;;;;;;;;4362531;32;20089;-63
2022/04/13 07:05:43;;;;;;;4.85;3.00;;;;;;;;;;4362339;32;20153;-63
2022/04/13 07:08:10;;;;;;;8.02;2.87;;;;;;;;;;4362695;32;20070;-63
2022/04/13 07:10:37;;;;;;;4.55;2.80;;;;;;;;;;4376075;32;20165;-64
2022/04/13 07:13:03;;;;;;;7.47;3.25;;;16.20;99.90;;;;;;4362675;32;20143;-63
2022/04/13 07:15:30;;;;;;;6.25;2.90;;;16.40;99.90;;;;;;4338018;32;20090;-64
2022/04/13 07:17:57;;;;;;;4.65;2.65;;;;;;;;;;4350308;32;20170;-63
2022/04/13 07:20:23;;;;;;;10.40;3.20;;;;;;;;;;4363141;32;20151;-63
2022/04/13 07:22:52;;;;;;;11.40;4.25;;;;;;;;;;4362524;32;20082;-63
2022/04/13 07:25:20;;;;;;;7.70;3.40;;;;;;;;;;4363344;32;20157;-64
2022/04/13 07:27:47;;;;;;;5.75;3.45;;;;;;;;;;4350262;32;20113;-63
2022/04/13 07:30:14;;;;;;;5.37;3.45;;;;;;;;;;4362235;32;20085;-63
2022/04/13 07:32:45;;;;;;;6.50;3.62;;;16.80;99.90;;;;;;4362225;32;20086;-66
2022/04/13 07:35:12;;;;;;;8.32;2.92;;;;;;;;;;4347179;32;20090;-63
2022/04/13 07:37:40;;;;;;;5.87;3.37;;;;;;;;;;4347115;32;20526;-64
2022/04/13 07:40:11;;;;;;;6.40;3.72;;;;;;;;;;4347790;32;20069;-63
2022/04/13 07:42:38;;;;;;;10.40;3.08;;;16.60;99.90;;;;;;4347191;32;20187;-63
2022/04/13 07:45:06;;;;;;;5.30;3.28;;;;;;;;;;4335286;32;20082;-66
2022/04/13 07:47:33;;;;;;;5.62;3.10;;;;;;;;;;4334873;32;20106;-63
2022/04/13 07:50:00;;;;;;;7.28;3.85;;;16.50;99.90;;;;;;4347361;32;20063;-65
2022/04/13 07:52:26;;;;;;;5.22;3.65;;;;;;;;;;4335267;32;20089;-63
2022/04/13 07:54:53;;;;;;;11.57;4.90;;;;;;;;;;4335076;32;20153;-65
2022/04/13 07:57:20;;;;;;;8.25;3.70;;;16.80;99.30;;;;;;4360846;32;20531;-63
2022/04/13 07:59:46;;;;;;;5.00;3.40;;;17.40;99.90;;;;;;4335709;32;20083;-63
2022/04/13 08:02:13;;;;;;;12.07;5.55;;;17.30;99.90;;;;;;4360978;32;20082;-63
2022/04/13 08:04:41;;;;;;;9.43;6.43;;;16.40;99.90;;;;;;4347102;32;20105;-63
2022/04/13 08:07:07;;;;;;;7.22;3.90;;;17.10;90.80;;;;;;4360644;32;20142;-64
2022/04/13 08:09:35;;;;;;;10.15;5.55;;;17.00;98.70;;;;;;4360987;32;20169;-64
2022/04/13 08:12:01;;;;;;;9.73;4.65;;;;;;;;;;4347269;32;20075;-63
2022/04/13 08:14:28;;;;;;;7.50;4.60;;;;;;;;;;4346920;32;20108;-63
2022/04/13 08:16:55;;;;;;;7.18;4.20;;;;;;;;;;4334902;32;20109;-65
2022/04/13 08:19:21;;;;;;;6.93;4.28;;;16.50;99.90;;;;;;4347452;32;20109;-63
2022/04/13 08:21:48;;;;;;;9.85;4.00;;;;;;;;;;4335507;32;20078;-63
2022/04/13 08:24:17;;;;;;;6.28;3.53;;;;;;;;;;4349943;32;20150;-63
2022/04/13 08:26:44;;;;;;;4.15;3.00;;;;;;;;;;4325518;32;20117;-63
2022/04/13 08:29:11;;;;;;;6.25;3.10;;;17.30;90.20;;;;;;4349741;32;20070;-63
2022/04/13 08:31:38;;;;;;;8.43;3.92;;;17.20;91.80;;;;;;4349786;32;20445;-63
2022/04/13 08:34:04;;;;;;;9.88;5.57;;;16.80;93.00;;;;;;4362761;32;20172;-64
2022/04/13 08:36:30;;;;;;;8.00;3.85;;;16.20;95.60;;;;;;4362403;32;20090;-63
2022/04/13 08:38:57;;;;;;;5.12;2.90;;;16.60;98.10;;;;;;4365328;32;20085;-63
2022/04/13 08:42:13;;;;;;;5.85;3.08;;;17.10;96.20;;;;;;4378727;32;20112;-62
2022/04/13 08:44:48;;;;;;;7.18;3.20;;;17.10;97.00;;;;;;4344822;32;20069;-64
2022/04/13 08:47:24;;;;;;;6.50;3.33;;;17.40;97.70;;;;;;4378612;32;20073;-66
2022/04/13 08:49:53;;;;;;;5.78;3.62;;;16.90;99.90;;;;;;4365278;32;20081;-64
2022/04/13 08:52:31;;;;;;;7.82;3.28;;;16.60;99.90;;;;;;4340285;32;20088;-63
2022/04/13 08:55:11;;;;;;;8.45;3.92;;;;;;;;;;4365249;32;20088;-63
2022/04/13 08:57:47;;;;;;;4.87;3.50;;;;;;;;;;4377574;32;20112;-62
2022/04/13 09:00:20;;;;;;;4.20;2.53;;;17.90;98.40;;;;;;4351810;32;20089;-63
2022/04/13 09:03:29;;;;;;;17.83;3.92;;;18.10;94.30;;;;;;4339706;32;20078;-63
2022/04/13 09:05:57;;;;;;;6.80;3.10;;;17.80;97.80;;;;;;4352836;32;20080;-62
2022/04/13 09:08:26;;;;;;;8.63;3.00;;;;;;;;;;4365621;32;20089;-62
2022/04/13 09:10:54;;;;;;;4.62;3.05;;;;;;;;;;4339359;32;20098;-68
2022/04/13 09:13:24;;;;;;;8.25;3.78;;;;;;;;;;4372891;32;20055;-64
2022/04/13 09:15:51;;;;;;;6.37;3.60;;;;;;;;;;4370687;32;20074;-64
2022/04/13 09:18:18;;;;;;;5.20;3.12;;;;;;;;;;4364685;32;20079;-63
2022/04/13 09:20:44;;;;;;;7.90;3.20;;;;;;;;;;4350607;32;20075;-66
2022/04/13 09:23:14;;;;;;;4.72;2.90;;;;;;;;;;4365118;32;20503;-65
2022/04/13 09:25:41;;;;;;;4.28;2.50;;;;;;;;;;4349188;32;20063;-66
2022/04/13 09:28:07;;;;;;;6.30;3.72;;;16.90;83.00;;;;;;4356648;32;20182;-63
2022/04/13 09:30:36;;;;;;;4.62;3.20;;;16.60;94.30;;;;;;4359543;32;20174;-63
2022/04/13 09:33:03;;;;;;;5.97;3.10;;;17.40;99.10;;;;;;4360964;32;20501;-64
2022/04/13 09:35:34;;;;;;;5.20;3.80;;;;;;;;;;4348603;32;20104;-62
2022/04/13 09:38:05;;;;;;;5.37;3.00;;;;;;;;;;4354728;32;20148;-64
2022/04/13 09:40:37;;;;;;;7.05;2.75;;;;;;;;;;4377696;32;20509;-64
2022/04/13 09:43:17;;;;;;;4.32;2.78;;;;;;;;;;4363750;32;20464;-64
2022/04/13 09:45:49;;;;;;;5.43;2.72;;;;;;;;;;4362750;32;20066;-63
2022/04/13 09:48:19;;;;;;;6.10;2.92;;;;;;;;;;4364197;32;20078;-64
2022/04/13 09:50:47;;;;;;;6.70;3.10;;;;;;;;;;4364007;32;20504;-64
2022/04/13 09:53:15;;;;;;;5.72;3.22;;;16.90;86.20;;;;;;4361690;32;20557;-64
2022/04/13 09:55:50;;;;;;;6.50;2.78;;;17.50;90.40;;;;;;4361245;32;20133;-64
2022/04/13 09:58:20;;;;;;;4.87;2.42;;;17.10;93.50;;;;;;4364320;32;20524;-64
2022/04/13 10:00:49;;;;;;;7.18;3.22;;;;;;;;;;4365369;32;20242;-64
2022/04/13 10:03:23;;;;;;;4.50;2.50;;;;;;;;;;4365005;32;20096;-63
2022/04/13 10:05:58;;;;;;;6.10;2.92;;;18.20;99.90;;;;;;4363977;32;20086;-62
2022/04/13 10:08:30;;;;;;;4.53;3.00;;;;;;;;;;4364807;32;20130;-64
2022/04/13 10:10:59;;;;;;;6.53;3.12;;;17.60;97.70;;;;;;4366299;32;20078;-63
2022/04/13 10:13:33;;;;;;;5.62;2.95;;;;;;;;;;4360206;32;20094;-64
2022/04/13 10:16:02;;;;;;;7.35;3.20;;;;;;;;;;4384860;32;20512;-64
2022/04/13 10:18:30;;;;;;;5.00;2.83;;;;;;;;;;4348889;32;20066;-64
2022/04/13 10:20:57;;;;;;;5.78;2.80;;;;;;;;;;4349671;32;20158;-64
2022/04/13 10:23:23;;;;;;;7.15;2.78;;;17.90;74.70;;;;;;4356907;32;20090;-64
2022/04/13 10:25:49;;;;;;;6.10;3.05;;;18.10;76.00;;;;;;4378650;32;20078;-67
2022/04/13 10:28:22;;;;;;;7.00;2.87;;;17.90;79.40;;;;;;4354201;32;20073;-66
2022/04/13 10:30:49;;;;;;;7.55;3.50;;;17.60;88.40;;;;;;4368271;32;20155;-67
2022/04/13 10:33:15;;;;;;;7.25;3.08;;;;;;;;;;4365571;32;20117;-68
2022/04/13 10:35:46;;;;;;;3.75;2.75;;;17.60;96.20;;;;;;4361640;32;20179;-65
2022/04/13 10:38:13;;;;;;;9.30;3.47;;;17.70;98.30;;;;;;4351212;32;20073;-65
2022/04/13 10:40:42;;;;;;;6.15;2.80;;;17.60;90.70;;;;;;4364493;32;20087;-65
2022/04/13 10:43:11;;;;;;;5.03;2.80;;;;;;;;;;4371678;32;20219;-73
2022/04/13 10:45:45;;;;;;;8.98;2.87;;;;;;;;;;4365892;32;20061;-68
2022/04/13 10:48:12;;;;;;;6.28;2.95;;;17.40;95.70;;;;;;4354793;32;20066;-71
2022/04/13 10:51:00;;;;;;;7.60;3.10;;;17.90;78.40;;;;;;4353616;32;20093;-71
2022/04/13 10:53:59;;;;;;;10.07;3.62;;;18.10;87.50;;;;;;4351137;32;20081;-67
2022/04/13 10:56:28;;;;;;;10.00;3.58;;;;;;;;;;4353421;32;20071;-70
2022/04/13 10:59:26;;;;;;;5.60;3.53;;;18.60;90.40;;;;;;4347673;32;20137;-64
2022/04/13 11:01:59;;;;;;;10.43;4.37;;;18.80;94.70;;;;;;4358805;32;20121;-70
2022/04/13 11:04:27;;;;;;;8.75;4.40;;;18.50;93.30;;;;;;4350674;32;20082;-67
2022/04/13 11:06:54;;;;;;;13.68;4.20;;;;;;;;;;4375735;32;20078;-63
2022/04/13 11:09:27;;;;;;;11.73;3.05;;;18.10;98.70;;;;;;4346217;32;20137;-65
2022/04/13 11:11:56;;;;;;;7.78;2.72;;;;;;;;;;4360875;32;20075;-73
2022/04/13 11:14:24;;;;;;;5.95;2.90;;;;;;;;;;4339009;32;20085;-72
2022/04/13 11:17:05;;;;;;;4.70;2.65;;;17.80;94.20;;;;;;4350608;32;20081;-70
2022/04/13 11:19:32;;;;;;;7.43;3.00;;;;;;;;;;4346770;32;20174;-70
2022/04/13 11:21:59;;;;;;;5.35;2.97;;;;;;;;;;4359210;32;20070;-70
2022/04/13 11:24:33;;;;;;;3.62;2.70;;;;;;;;;;4347820;32;20074;-69
2022/04/13 11:27:00;;;;;;;5.05;2.95;;;;;;;;;;4361576;32;20456;-71
2022/04/13 11:29:35;;;;;;;4.87;2.80;;;;;;;;;;4348736;32;20148;-69
2022/04/13 11:32:01;;;;;;;4.25;2.95;;;;;;;;;;4350240;32;20142;-69
2022/04/13 11:34:35;;;;;;;5.22;2.78;;;;;;;;;;4347095;32;20493;-70
2022/04/13 11:37:03;;;;;;;6.37;2.95;;;;;;;;;;4363826;32;20070;-70
2022/04/13 11:40:04;;;;;;;7.25;2.87;;;18.30;71.50;;;;;;4370898;32;20138;-70
2022/04/13 11:42:37;;;;;;;5.37;2.60;;;18.30;72.40;;;;;;4350014;32;20071;-66
2022/04/13 11:45:06;;;;;;;8.57;2.97;;;18.50;72.30;;;;;;4347436;32;20509;-66
2022/04/13 11:48:03;;;;;;;5.90;2.92;;;18.20;74.10;;;;;;4361196;32;20520;-66
2022/04/13 11:50:33;;;;;;;10.52;3.62;;;18.50;79.50;;;;;;4343374;32;20588;-65
2022/04/13 11:53:13;;;;;;;6.37;3.87;;;18.10;84.00;;;;;;4347521;32;20070;-65
2022/04/13 11:55:40;;;;;;;6.75;3.53;;;17.90;88.90;;;;;;4347512;32;20586;-66
2022/04/13 11:58:09;;;;;;;5.07;3.20;;;18.10;92.20;;;;;;4337619;32;20090;-71
2022/04/13 12:00:57;;;;;;;8.68;4.10;;;;;;;;;;4350737;32;20093;-70
2022/04/13 12:03:31;;;;;;;7.95;3.12;;;;;;;;;;4351160;32;20547;-68
2022/04/13 12:06:10;;;;;;;8.30;3.33;;;18.20;70.00;;;;;;4351090;32;20184;-68
2022/04/13 12:08:46;;;;;;;15.20;3.65;;;18.50;74.20;;;;;;4339201;32;20188;-70
2022/04/13 12:11:18;;;;;;;7.25;3.55;;;19.00;80.60;;;;;;4353145;32;20131;-65
2022/04/13 12:13:50;;;;;;;4.90;3.17;;;;;;;;;;4369132;32;20117;-66
2022/04/13 12:16:28;;;;;;;8.25;3.47;;;;;;;;;;4368388;32;20074;-66
2022/04/13 12:18:59;;;;;;;7.50;3.20;;;;;;;;;;4353979;32;20062;-63
2022/04/13 12:21:29;;;;;;;6.28;3.37;;;;;;;;;;4365943;32;20078;-63
2022/04/13 12:23:56;;;;;;;7.22;3.83;;;;;;;;;;4340972;32;20460;-62
2022/04/13 12:26:30;;;;;;;9.43;4.18;;;18.80;84.70;;;;;;4352436;32;20586;-61
2022/04/13 12:28:57;;;;;;;6.72;3.40;;;;;;;;;;4366703;32;20093;-66
2022/04/13 12:31:27;;;;;;;8.15;3.78;;;;;;;;;;4356296;32;20096;-63
2022/04/13 12:34:04;;;;;;;7.72;3.08;;;;;;;;;;4363617;32;20124;-63
2022/04/13 12:36:30;;;;;;;9.15;3.90;;;18.10;77.90;;;;;;4357442;32;20094;-64
2022/04/13 12:38:57;;;;;;;7.62;3.95;;;;;;;;;;4365602;32;20071;-63
2022/04/13 12:41:27;;;;;;;7.12;3.22;;;;;;;;;;4355741;32;20150;-62
2022/04/13 12:43:56;;;;;;;10.23;3.42;;;;;;;;;;4360461;32;20089;-64
2022/04/13 12:46:24;;;;;;;6.35;3.40;;;;;;;;;;4349128;32;20105;-64
2022/04/13 12:48:56;;;;;;;5.40;3.10;;;;;;;;;;4365679;32;20078;-65
2022/04/13 12:51:23;;;;;;;5.85;3.10;;;;;;;;;;4367186;32;20174;-62
2022/04/13 12:53:51;;;;;;;5.45;3.20;;;;;;;;;;4345276;32;20106;-64
2022/04/13 12:56:20;;;;;;;7.43;3.78;;;;;;;;;;4356092;32;20633;-63
2022/04/13 12:58:47;;;;;;;9.30;4.30;;;;;;;;;;4347098;32;20074;-65
2022/04/13 13:01:31;;;;;;;7.20;3.78;;;;;;;;;;4359018;32;20166;-63
2022/04/13 13:04:14;;;;;;;6.00;3.28;;;;;;;;;;4364824;32;20074;-63
2022/04/13 13:07:00;;;;;;;11.15;3.22;;;;;;;;;;4347658;32;20205;-65
2022/04/13 13:09:32;;;;;;;7.75;3.62;;;;;;;;;;4355091;32;20105;-63
2022/04/13 13:12:03;;;;;;;7.53;3.37;;;;;;;;;;4340199;32;20143;-63
2022/04/13 13:14:41;;;;;;;9.55;4.75;;;;;;;;;;4341836;32;20177;-63
2022/04/13 13:17:19;;;;;;;9.80;5.10;;;;;;;;;;4343853;32;20104;-62
2022/04/13 13:19:46;;;;;;;9.68;5.32;;;;;;;;;;4355190;32;20146;-63
2022/04/13 13:22:15;;;;;;;14.87;6.00;;;;;;;;;;4344567;32;20118;-62
2022/04/13 13:24:45;;;;;;;13.62;7.25;;;;;;;;;;4344749;32;20106;-62
2022/04/13 13:27:12;;;;;;;11.75;6.70;;;;;;;;;;4354810;32;20171;-63
2022/04/13 13:29:46;;;;;;;12.82;7.60;;;;;;;;;;4333779;32;20182;-62
2022/04/13 13:32:14;;;;;;;13.88;7.68;;;;;;;;;;4357294;32;20635;-62
2022/04/13 13:35:03;;;;;;;14.45;7.15;;;17.40;99.90;;;;;;4346717;32;20176;-63
2022/04/13 13:37:44;;;;;;;11.88;6.65;;;;;;;;;;4354288;32;20098;-65
2022/04/13 13:40:32;;;;;;;21.50;9.43;;;;;;;;;;4341124;32;20116;-64
2022/04/13 13:43:04;;;;;;;9.40;5.07;;;17.40;97.40;;;;;;4357519;32;20186;-63
2022/04/13 13:45:35;;;;;;;9.73;5.50;;;17.20;99.90;;;;;;4354395;32;20838;-64
2022/04/13 13:48:03;;;;;;;23.27;5.90;;;;;;;;;;4340846;32;20121;-65
2022/04/13 13:50:33;;;;;;;10.55;4.80;;;;;;;;;;4345405;32;20102;-63
2022/04/13 13:52:59;;;;;;;10.63;4.85;;;17.10;98.20;;;;;;4349119;32;20074;-63
2022/04/13 13:55:40;;;;;;;6.85;4.47;;;17.20;99.50;;;;;;3842763;37;20086;-65
2022/04/13 13:58:07;;;;;;;9.93;4.85;;;17.30;99.90;;;;;;4412942;32;20521;-64
2022/04/13 14:00:37;;;;;;;11.63;5.03;;;17.30;99.90;;;;;;4418285;32;20072;-65
2022/04/13 14:03:08;;;;;;;8.48;4.82;;;;;;;;;;4391628;32;21070;-64
2022/04/13 14:05:35;;;;;;;12.27;5.05;;;;;;;;;;4383887;32;20699;-63
2022/04/13 14:08:08;;;;;;;7.07;3.78;;;17.40;89.10;;;;;;4381671;32;20129;-63